createdAt,value
2022-08-07T00:01:43.345Z,69.53
2022-08-07T00:04:30.610Z,68.50
2022-08-07T00:07:40.530Z,68.95
2022-08-07T00:10:47.994Z,71.18
2022-08-07T00:14:00.145Z,67.53
2022-08-07T00:17:06.655Z,68.40
2022-08-07T00:20:10.179Z,68.72
2022-08-07T00:23:21.119Z,67.87
2022-08-07T00:26:49.466Z,69.78
2022-08-07T00:29:47.258Z,66.85
2022-08-07T00:32:50.549Z,68.78
2022-08-07T00:35:55.895Z,64.40
2022-08-07T00:38:59.163Z,72.25
2022-08-07T00:42:05.219Z,66.68
2022-08-07T00:45:16.142Z,65.75
2022-08-07T00:48:19.574Z,62.92
2022-08-07T00:51:57.403Z,66.82
2022-08-07T00:54:57.111Z,72.18
2022-08-07T00:58:00.138Z,67.28
2022-08-07T01:01:03.231Z,64.50
2022-08-07T01:04:07.579Z,71.65
2022-08-07T01:07:12.671Z,68.60
2022-08-07T01:10:18.387Z,73.18
2022-08-07T01:13:22.074Z,69.05
2022-08-07T01:16:30.230Z,64.85
2022-08-07T01:19:34.655Z,72.93
2022-08-07T01:22:54.159Z,66.45
2022-08-07T01:26:11.998Z,65.50
2022-08-07T01:29:17.316Z,58.55
2022-08-07T01:32:22.466Z,67.57
2022-08-07T01:35:52.945Z,71.10
2022-08-07T01:38:53.119Z,66.15
2022-08-07T01:42:37.174Z,70.78
2022-08-07T01:45:23.064Z,68.93
2022-08-07T01:48:46.688Z,63.50
2022-08-07T01:52:03.677Z,74.95
2022-08-07T01:55:22.280Z,71.03
2022-08-07T01:58:33.484Z,66.28
2022-08-07T02:02:04.298Z,70.00
2022-08-07T02:05:47.555Z,67.40
2022-08-07T02:08:54.232Z,68.53
2022-08-07T02:12:17.740Z,70.55
2022-08-07T02:15:23.652Z,66.95
2022-08-07T02:18:33.011Z,73.93
2022-08-07T02:21:55.232Z,69.35
2022-08-07T02:25:00.847Z,70.57
2022-08-07T02:28:06.918Z,73.03
2022-08-07T02:31:28.061Z,69.15
2022-08-07T02:34:34.129Z,66.85
2022-08-07T02:37:44.166Z,74.37
2022-08-07T02:40:50.487Z,73.47
2022-08-07T02:43:59.435Z,72.70
2022-08-07T02:47:04.421Z,65.53
2022-08-07T02:50:08.088Z,67.45
2022-08-07T02:53:18.083Z,65.97
2022-08-07T02:56:26.044Z,75.80
2022-08-07T02:59:32.410Z,75.43
2022-08-07T03:02:37.623Z,63.38
2022-08-07T03:05:57.231Z,65.62
2022-08-07T03:09:06.037Z,67.15
2022-08-07T03:12:16.206Z,65.80
2022-08-07T03:15:30.314Z,60.85
2022-08-07T03:18:50.086Z,72.80
2022-08-07T03:21:53.194Z,74.57
2022-08-07T03:24:57.356Z,69.53
2022-08-07T03:28:09.382Z,66.35
2022-08-07T03:31:42.845Z,65.90
2022-08-07T03:35:01.158Z,69.75
2022-08-07T03:38:17.215Z,71.93
2022-08-07T03:41:42.079Z,67.87
2022-08-07T03:44:53.419Z,70.40
2022-08-07T03:48:00.938Z,65.30
2022-08-07T03:51:05.408Z,70.53
2022-08-07T03:54:35.140Z,71.28
2022-08-07T03:58:08.859Z,70.05
2022-08-07T04:01:03.772Z,70.32
2022-08-07T04:04:17.226Z,75.72
2022-08-07T04:07:22.842Z,67.95
2022-08-07T04:10:26.561Z,69.43
2022-08-07T04:14:10.745Z,75.03
2022-08-07T04:16:59.011Z,68.15
2022-08-07T04:20:11.293Z,69.03
2022-08-07T04:23:19.295Z,75.90
2022-08-07T04:26:23.108Z,74.87
2022-08-07T04:29:48.822Z,73.00
2022-08-07T04:32:58.154Z,75.15
2022-08-07T04:36:06.610Z,71.95
2022-08-07T04:39:10.544Z,76.03
2022-08-07T04:42:13.761Z,75.53
2022-08-07T04:45:22.408Z,75.25
2022-08-07T04:49:24.212Z,71.20
2022-08-07T04:52:34.166Z,75.30
2022-08-07T04:58:14.164Z,73.70
2022-08-07T05:00:11.956Z,75.45
2022-08-07T05:03:59.619Z,69.45
2022-08-07T05:07:20.609Z,72.53
2022-08-07T05:10:35.241Z,65.57
2022-08-07T05:14:53.336Z,66.07
2022-08-07T05:17:13.928Z,63.38
2022-08-07T05:20:50.266Z,66.15
2022-08-07T05:23:59.814Z,62.42
2022-08-07T05:27:08.453Z,54.85
2022-08-07T05:30:33.227Z,57.17
2022-08-07T05:33:38.765Z,49.33
2022-08-07T05:36:44.957Z,53.65
2022-08-07T05:40:14.320Z,49.60
2022-08-07T05:43:18.623Z,44.33
2022-08-07T05:46:23.142Z,49.25
2022-08-07T05:49:41.014Z,48.60
2022-08-07T05:52:44.171Z,48.03
2022-08-07T05:56:03.551Z,54.65
2022-08-07T05:59:17.429Z,54.42
2022-08-07T06:02:28.440Z,52.97
2022-08-07T06:05:34.404Z,52.65
2022-08-07T06:08:44.190Z,52.13
2022-08-07T06:11:50.180Z,53.03
2022-08-07T06:14:55.168Z,53.58
2022-08-07T06:18:07.203Z,56.15
2022-08-07T06:22:14.300Z,53.30
2022-08-07T06:24:52.733Z,51.22
2022-08-07T06:28:07.412Z,55.15
2022-08-07T06:31:11.656Z,53.63
2022-08-07T06:34:14.591Z,56.70
2022-08-07T06:37:20.679Z,55.05
2022-08-07T06:40:25.421Z,57.95
2022-08-07T06:43:39.255Z,56.60
2022-08-07T06:46:43.084Z,54.47
2022-08-07T06:49:58.545Z,59.55
2022-08-07T06:53:04.224Z,59.40
2022-08-07T06:56:15.526Z,58.42
2022-08-07T07:00:12.088Z,57.03
2022-08-07T07:02:54.613Z,57.60
2022-08-07T07:06:01.839Z,59.38
2022-08-07T07:09:16.649Z,54.93
2022-08-07T07:15:39.670Z,53.80
2022-08-07T07:18:50.209Z,63.10
2022-08-07T07:22:05.309Z,55.33
2022-08-07T07:26:35.524Z,57.42
2022-08-07T07:29:40.493Z,53.03
2022-08-07T07:32:28.711Z,56.00
2022-08-07T07:35:54.513Z,53.03
2022-08-07T07:39:00.461Z,58.30
2022-08-07T07:42:12.945Z,44.22
2022-08-07T07:45:19.172Z,49.92
2022-08-07T07:48:35.948Z,49.05
2022-08-07T07:51:57.516Z,46.97
2022-08-07T07:55:04.224Z,45.17
2022-08-07T07:58:07.519Z,45.35
2022-08-07T08:02:01.888Z,42.85
2022-08-07T08:04:43.540Z,41.67
2022-08-07T08:07:59.523Z,43.87
2022-08-07T08:11:16.279Z,45.85
2022-08-07T08:14:36.369Z,43.83
2022-08-07T08:17:57.687Z,44.30
2022-08-07T08:21:02.661Z,39.70
2022-08-07T08:24:44.844Z,40.53
2022-08-07T08:27:56.361Z,42.10
2022-08-07T08:31:06.677Z,37.25
2022-08-07T08:34:12.447Z,43.10
2022-08-07T08:38:01.161Z,40.00
2022-08-07T08:41:11.910Z,44.75
2022-08-07T08:44:44.600Z,34.63
2022-08-07T08:48:28.479Z,34.45
2022-08-07T08:52:12.798Z,38.63
2022-08-07T08:55:54.350Z,40.38
2022-08-07T08:58:57.131Z,40.65
2022-08-07T09:02:34.673Z,38.83
2022-08-07T09:09:47.546Z,41.50
2022-08-07T09:13:15.002Z,47.62
2022-08-07T09:16:45.595Z,44.50
2022-08-07T09:19:59.621Z,38.22
2022-08-07T09:24:32.558Z,35.72
2022-08-07T09:27:24.856Z,44.30
2022-08-07T09:30:54.278Z,43.00
2022-08-07T09:33:58.277Z,44.90
2022-08-07T09:37:08.073Z,50.35
2022-08-07T09:40:26.530Z,48.17
2022-08-07T09:44:05.422Z,39.20
2022-08-07T09:47:57.765Z,41.20
2022-08-07T09:51:14.820Z,45.42
2022-08-07T09:54:45.474Z,49.25
2022-08-07T09:58:03.946Z,56.25
2022-08-07T10:01:52.088Z,43.53
2022-08-07T10:05:59.631Z,46.92
2022-08-07T10:09:23.833Z,49.63
2022-08-07T10:13:29.873Z,55.85
2022-08-07T10:17:16.830Z,54.90
2022-08-07T10:20:39.436Z,50.75
2022-08-07T10:24:05.881Z,61.30
2022-08-07T10:27:51.398Z,49.55
2022-08-07T10:30:57.748Z,50.65
2022-08-07T10:34:32.185Z,53.38
2022-08-07T10:38:09.609Z,54.30
2022-08-07T10:41:51.224Z,42.00
2022-08-07T10:45:16.923Z,46.95
2022-08-07T10:48:39.872Z,83.12
2022-08-07T10:52:01.605Z,49.33
2022-08-07T10:55:37.887Z,54.08
2022-08-07T10:59:21.641Z,50.22
2022-08-07T11:02:38.144Z,51.78
2022-08-07T11:06:21.826Z,48.53
2022-08-07T11:10:08.971Z,61.33
2022-08-07T11:14:42.618Z,70.15
2022-08-07T11:17:43.112Z,68.28
2022-08-07T11:21:14.761Z,65.20
2022-08-07T11:24:33.598Z,66.78
2022-08-07T11:28:02.513Z,67.22
2022-08-07T11:31:24.824Z,76.25
2022-08-07T11:34:42.534Z,70.68
2022-08-07T11:38:12.715Z,72.75
2022-08-07T11:41:29.673Z,70.78
2022-08-07T11:45:20.457Z,76.12
2022-08-07T11:49:51.043Z,67.22
2022-08-07T11:52:42.906Z,72.75
2022-08-07T11:56:27.006Z,75.15
2022-08-07T12:00:19.793Z,76.57
2022-08-07T12:03:41.538Z,70.80
2022-08-07T12:07:17.274Z,71.20
2022-08-07T12:10:35.390Z,78.75
2022-08-07T12:13:47.765Z,78.55
2022-08-07T12:17:04.289Z,77.60
2022-08-07T12:20:29.691Z,71.82
2022-08-07T12:24:07.317Z,78.07
2022-08-07T12:27:18.651Z,73.57
2022-08-07T12:30:34.838Z,78.65
2022-08-07T12:34:01.486Z,73.78
2022-08-07T12:37:08.819Z,72.45
2022-08-07T12:40:46.827Z,67.28
2022-08-07T12:47:30.736Z,73.25
2022-08-07T12:50:55.648Z,73.03
2022-08-07T12:54:36.459Z,74.95
2022-08-07T12:57:38.927Z,83.60
2022-08-07T13:01:19.659Z,72.05
2022-08-07T13:05:01.391Z,71.28
2022-08-07T13:08:33.999Z,76.43
2022-08-07T13:12:03.322Z,75.07
2022-08-07T13:15:29.772Z,74.30
2022-08-07T13:19:02.750Z,72.78
2022-08-07T13:22:19.864Z,68.90
2022-08-07T13:25:39.466Z,75.90
2022-08-07T13:29:01.307Z,69.07
2022-08-07T13:32:31.832Z,74.75
2022-08-07T13:36:01.070Z,74.43
2022-08-07T13:40:34.232Z,72.55
2022-08-07T13:43:04.838Z,81.28
2022-08-07T13:46:24.802Z,73.00
2022-08-07T13:50:34.785Z,79.05
2022-08-07T13:53:02.934Z,70.50
2022-08-07T13:56:06.411Z,69.30
2022-08-07T13:59:21.535Z,81.60
2022-08-07T14:02:33.328Z,76.03
2022-08-07T14:05:38.334Z,83.72
2022-08-07T14:08:48.724Z,85.28
2022-08-07T14:12:07.376Z,84.55
2022-08-07T14:15:35.903Z,81.05
2022-08-07T14:18:44.926Z,80.00
2022-08-07T14:22:04.266Z,78.10
2022-08-07T14:25:18.242Z,74.37
2022-08-07T14:28:33.226Z,89.80
2022-08-07T14:31:56.642Z,83.32
2022-08-07T14:35:03.905Z,81.05
2022-08-07T14:38:09.260Z,82.88
2022-08-07T14:42:22.383Z,73.68
2022-08-07T14:45:21.724Z,78.43
2022-08-07T14:48:33.220Z,75.80
2022-08-07T14:52:05.143Z,82.47
2022-08-07T14:55:02.833Z,82.72
2022-08-07T14:58:07.281Z,83.75
2022-08-07T15:01:42.262Z,77.68
2022-08-07T15:04:53.288Z,75.30
2022-08-07T15:07:58.509Z,74.43
2022-08-07T15:11:10.151Z,77.80
2022-08-07T15:14:25.413Z,74.53
2022-08-07T15:17:54.668Z,78.95
2022-08-07T15:21:04.013Z,74.43
2022-08-07T15:25:13.905Z,76.68
2022-08-07T15:31:10.704Z,71.53
2022-08-07T15:34:17.152Z,74.18
2022-08-07T15:37:29.164Z,81.20
2022-08-07T15:44:20.894Z,74.10
2022-08-07T15:48:00.229Z,76.65
2022-08-07T15:54:25.715Z,74.82
2022-08-07T15:57:39.834Z,74.87
2022-08-07T16:00:51.867Z,73.60
2022-08-07T16:04:03.152Z,71.18
2022-08-07T16:08:29.113Z,69.22
2022-08-07T16:10:47.151Z,69.78
2022-08-07T16:14:05.395Z,69.80
2022-08-07T16:18:02.028Z,72.18
2022-08-07T16:21:53.735Z,72.93
2022-08-07T16:24:33.969Z,69.32
2022-08-07T16:29:18.917Z,70.05
2022-08-07T16:31:57.353Z,63.87
2022-08-07T16:35:51.841Z,65.65
2022-08-07T16:39:20.853Z,68.25
2022-08-07T16:43:07.561Z,67.10
2022-08-07T16:50:38.897Z,67.10
2022-08-07T16:54:06.403Z,66.30
2022-08-07T16:58:00.872Z,69.65
2022-08-07T17:01:23.970Z,66.55
2022-08-07T17:05:05.577Z,66.90
2022-08-07T17:08:09.047Z,71.82
2022-08-07T17:12:04.325Z,67.65
2022-08-07T17:15:03.139Z,63.45
2022-08-07T17:18:36.215Z,70.62
2022-08-07T17:21:51.378Z,71.07
2022-08-07T17:25:08.235Z,73.60
2022-08-07T17:28:25.275Z,73.28
2022-08-07T17:31:33.959Z,71.28
2022-08-07T17:35:40.630Z,72.18
2022-08-07T17:38:33.915Z,69.50
2022-08-07T17:42:36.314Z,70.45
2022-08-07T17:46:22.775Z,62.65
2022-08-07T17:50:01.030Z,67.10
2022-08-07T17:53:52.588Z,69.47
2022-08-07T17:56:36.136Z,66.18
2022-08-07T17:59:58.643Z,69.03
2022-08-07T18:03:09.559Z,72.90
2022-08-07T18:06:16.745Z,68.35
2022-08-07T18:10:06.596Z,66.62
2022-08-07T18:13:40.681Z,68.05
2022-08-07T18:16:58.264Z,67.65
2022-08-07T18:21:07.143Z,77.90
2022-08-07T18:24:07.648Z,63.55
2022-08-07T18:27:17.217Z,68.93
2022-08-07T18:30:31.254Z,64.25
2022-08-07T18:34:34.838Z,73.47
2022-08-07T18:38:57.675Z,70.85
2022-08-07T18:41:44.885Z,73.22
2022-08-07T18:45:43.219Z,71.47
2022-08-07T18:50:32.509Z,70.12
2022-08-07T18:52:54.304Z,68.18
2022-08-07T18:56:37.692Z,65.35
2022-08-07T19:00:04.371Z,62.45
2022-08-07T19:03:49.453Z,66.72
2022-08-07T19:07:01.886Z,75.28
2022-08-07T19:10:21.898Z,73.32
2022-08-07T19:13:50.111Z,64.97
2022-08-07T19:17:07.092Z,70.50
2022-08-07T19:20:29.097Z,64.25
2022-08-07T19:23:58.811Z,64.37
2022-08-07T19:28:57.981Z,66.32
2022-08-07T19:31:05.544Z,65.65
2022-08-07T19:34:02.998Z,64.95
2022-08-07T19:37:17.036Z,67.43
2022-08-07T19:40:30.933Z,68.60
2022-08-07T19:43:48.592Z,62.78
2022-08-07T19:47:11.582Z,69.07
2022-08-07T19:50:41.142Z,67.95
2022-08-07T19:54:34.344Z,72.60
2022-08-07T19:58:02.756Z,70.12
2022-08-07T20:00:55.425Z,64.67
2022-08-07T20:04:01.437Z,69.45
2022-08-07T20:07:09.078Z,68.37
2022-08-07T20:10:35.846Z,72.68
2022-08-07T20:13:53.885Z,73.62
2022-08-07T20:16:59.331Z,66.15
2022-08-07T20:20:07.308Z,61.58
2022-08-07T20:23:32.938Z,66.68
2022-08-07T20:26:44.966Z,64.07
2022-08-07T20:29:59.226Z,73.72
2022-08-07T20:33:36.271Z,71.47
2022-08-07T20:36:33.810Z,70.20
2022-08-07T20:40:03.600Z,71.07
2022-08-07T20:43:09.713Z,64.00
2022-08-07T20:46:31.126Z,68.07
2022-08-07T20:50:00.834Z,63.63
2022-08-07T20:53:05.791Z,63.47
2022-08-07T20:56:10.552Z,71.22
2022-08-07T21:00:04.218Z,70.65
2022-08-07T21:02:58.610Z,65.07
2022-08-07T21:06:21.765Z,63.47
2022-08-07T21:09:35.580Z,64.78
2022-08-07T21:12:58.122Z,66.90
2022-08-07T21:16:04.300Z,70.62
2022-08-07T21:19:13.956Z,65.57
2022-08-07T21:22:19.087Z,66.10
2022-08-07T21:25:43.979Z,62.25
2022-08-07T21:29:15.916Z,64.30
2022-08-07T21:36:05.630Z,63.28
2022-08-07T21:39:48.176Z,80.05
2022-08-07T21:43:04.530Z,67.28
2022-08-07T21:46:24.508Z,73.90
2022-08-07T21:50:02.694Z,66.85
2022-08-07T21:53:17.145Z,62.60
2022-08-07T21:56:49.675Z,64.28
2022-08-07T22:00:05.188Z,71.62
2022-08-07T22:03:16.727Z,71.43
2022-08-07T22:06:45.278Z,68.68
2022-08-07T22:09:57.786Z,63.72
2022-08-07T22:13:09.227Z,64.15
2022-08-07T22:16:44.520Z,71.00
2022-08-07T22:20:02.794Z,70.62
2022-08-07T22:23:30.558Z,69.70
2022-08-07T22:26:46.866Z,74.15
2022-08-07T22:29:56.673Z,62.47
2022-08-07T22:33:01.690Z,72.93
2022-08-07T22:36:32.869Z,70.03
2022-08-07T22:39:52.448Z,67.32
2022-08-07T22:43:07.571Z,64.62
2022-08-07T22:47:01.929Z,64.97
2022-08-07T22:50:09.021Z,65.78
2022-08-07T22:54:07.736Z,65.97
2022-08-07T22:57:33.007Z,64.85
2022-08-07T23:00:48.747Z,63.60
2022-08-07T23:04:11.810Z,63.38
2022-08-07T23:07:53.867Z,63.97
2022-08-07T23:11:18.185Z,67.68
2022-08-07T23:15:08.027Z,61.20
2022-08-07T23:18:32.122Z,67.43
2022-08-07T23:21:56.415Z,68.10
2022-08-07T23:25:34.473Z,62.70
2022-08-07T23:29:42.793Z,70.53
2022-08-07T23:34:23.081Z,59.90
2022-08-07T23:36:35.847Z,68.65
2022-08-07T23:40:07.447Z,64.53
2022-08-07T23:43:38.014Z,67.85
2022-08-07T23:47:08.710Z,65.50
2022-08-07T23:50:37.496Z,68.45
2022-08-07T23:54:11.673Z,68.20
2022-08-07T23:57:44.710Z,65.30
